createdAt,value
2022-12-31T00:01:17.969Z,97440.53
2022-12-31T00:03:47.294Z,97441.66
2022-12-31T00:06:18.433Z,97441.66
2022-12-31T00:08:47.696Z,97446.03
2022-12-31T00:11:16.884Z,97440.84
2022-12-31T00:13:46.666Z,97449.91
2022-12-31T00:16:18.966Z,97453.47
2022-12-31T00:18:49.420Z,97458.16
2022-12-31T00:21:19.300Z,97452.66
2022-12-31T00:23:48.934Z,97458.16
2022-12-31T00:26:19.689Z,97452.66
2022-12-31T00:28:48.831Z,97459.78
2022-12-31T00:31:20.897Z,97460.91
2022-12-31T00:33:49.494Z,97455.41
2022-12-31T00:36:19.713Z,97458.16
2022-12-31T00:38:51.220Z,97460.41
2022-12-31T00:41:21.070Z,97460.41
2022-12-31T00:43:50.349Z,97471.94
2022-12-31T00:46:21.081Z,97467.56
2022-12-31T00:48:49.927Z,97474.69
2022-12-31T00:51:21.136Z,97480.19
2022-12-31T00:53:50.157Z,97476.94
2022-12-31T00:56:21.032Z,97479.38
2022-12-31T00:58:50.319Z,97486.81
2022-12-31T01:01:22.514Z,97494.28
2022-12-31T01:03:55.063Z,97487.94
2022-12-31T01:06:23.682Z,97486.00
2022-12-31T01:08:53.735Z,97493.47
2022-12-31T01:11:29.221Z,97498.97
2022-12-31T01:14:00.189Z,97498.97
2022-12-31T01:16:33.089Z,97506.09
2022-12-31T01:19:04.375Z,97498.97
2022-12-31T01:21:33.645Z,97501.72
2022-12-31T01:24:02.375Z,97509.97
2022-12-31T01:26:32.799Z,97500.09
2022-12-31T01:29:01.249Z,97508.34
2022-12-31T01:31:31.471Z,97509.97
2022-12-31T01:33:59.956Z,97529.25
2022-12-31T01:36:30.196Z,97520.19
2022-12-31T01:39:01.733Z,97523.75
2022-12-31T01:41:31.981Z,97520.19
2022-12-31T01:44:01.862Z,97524.88
2022-12-31T01:46:41.356Z,97524.06
2022-12-31T01:49:14.736Z,97535.88
2022-12-31T01:51:46.285Z,97524.88
2022-12-31T01:54:19.306Z,97528.75
2022-12-31T01:56:50.307Z,97533.44
2022-12-31T01:59:21.867Z,97534.25
2022-12-31T02:01:53.663Z,97534.25
2022-12-31T02:04:24.903Z,97537.31
2022-12-31T02:06:58.836Z,97528.25
2022-12-31T02:09:27.315Z,97525.50
2022-12-31T02:11:55.730Z,97534.88
2022-12-31T02:14:27.957Z,97540.38
2022-12-31T02:17:02.532Z,97546.53
2022-12-31T02:20:14.601Z,97542.00
2022-12-31T02:23:08.917Z,97545.91
2022-12-31T02:26:04.477Z,97535.69
2022-12-31T02:28:47.592Z,97534.88
2022-12-31T02:31:19.677Z,97530.50
2022-12-31T02:33:55.807Z,97539.56
2022-12-31T02:36:28.839Z,97526.94
2022-12-31T02:38:59.466Z,97538.75
2022-12-31T02:41:45.629Z,97533.25
2022-12-31T02:44:24.461Z,97537.13
2022-12-31T02:47:02.596Z,97537.94
2022-12-31T02:49:41.530Z,97519.81
2022-12-31T02:52:19.085Z,97544.28
2022-12-31T02:54:59.575Z,97534.38
2022-12-31T02:57:35.253Z,97538.25
2022-12-31T03:00:24.825Z,97548.16
2022-12-31T03:02:56.625Z,97552.53
2022-12-31T03:05:28.186Z,97542.66
2022-12-31T03:07:56.752Z,97544.59
2022-12-31T03:10:25.313Z,97535.50
2022-12-31T03:12:52.944Z,97541.81
2022-12-31T03:15:24.103Z,97535.50
2022-12-31T03:17:56.837Z,97544.91
2022-12-31T03:20:46.232Z,97542.16
2022-12-31T03:23:17.352Z,97544.91
2022-12-31T03:25:44.864Z,97544.91
2022-12-31T03:28:15.162Z,97534.69
2022-12-31T03:30:45.723Z,97535.50
2022-12-31T03:33:16.011Z,97535.00
2022-12-31T03:35:46.944Z,97526.75
2022-12-31T03:38:16.262Z,97519.63
2022-12-31T03:40:47.196Z,97530.63
2022-12-31T03:43:15.882Z,97546.03
2022-12-31T03:45:44.592Z,97551.53
2022-12-31T03:48:15.210Z,97558.97
2022-12-31T03:50:43.625Z,97571.59
2022-12-31T03:53:12.346Z,97561.41
2022-12-31T03:55:40.862Z,97569.97
2022-12-31T03:58:09.423Z,97566.41
2022-12-31T04:00:37.913Z,97564.47
2022-12-31T04:03:07.859Z,97558.16
2022-12-31T04:05:37.740Z,97559.28
2022-12-31T04:08:06.321Z,97558.16
2022-12-31T04:10:34.827Z,97567.53
2022-12-31T04:13:04.576Z,97575.81
2022-12-31T04:15:33.278Z,97573.03
2022-12-31T04:18:01.732Z,97577.75
2022-12-31T04:20:30.250Z,97585.19
2022-12-31T04:23:00.145Z,97585.19
2022-12-31T04:25:40.650Z,97594.25
2022-12-31T04:28:09.106Z,97593.44
2022-12-31T04:30:37.571Z,97590.69
2022-12-31T04:33:06.054Z,97586.31
2022-12-31T04:35:34.483Z,97575.28
2022-12-31T04:38:04.524Z,97576.94
2022-12-31T04:40:33.082Z,97596.19
2022-12-31T04:43:01.614Z,97598.94
2022-12-31T04:45:30.117Z,97603.63
2022-12-31T04:47:58.563Z,97609.97
2022-12-31T04:50:27.084Z,97600.88
2022-12-31T04:52:55.559Z,97602.81
2022-12-31T04:55:25.304Z,97602.81
2022-12-31T04:57:53.774Z,97598.94
2022-12-31T05:00:22.442Z,97584.69
2022-12-31T05:02:51.208Z,97596.19
2022-12-31T05:05:19.820Z,97613.84
2022-12-31T05:07:48.254Z,97618.53
2022-12-31T05:10:16.823Z,97627.59
2022-12-31T05:12:46.693Z,97630.66
2022-12-31T05:15:15.254Z,97643.28
2022-12-31T05:17:43.849Z,97634.22
2022-12-31T05:20:13.289Z,97632.59
2022-12-31T05:22:41.762Z,97645.22
2022-12-31T05:25:10.327Z,97657.88
2022-12-31T05:27:39.821Z,97652.69
2022-12-31T05:30:11.068Z,97657.06
2022-12-31T05:32:39.572Z,97645.22
2022-12-31T05:35:08.909Z,97653.00
2022-12-31T05:37:37.937Z,97660.13
2022-12-31T05:40:07.664Z,97650.75
2022-12-31T05:42:36.325Z,97661.75
2022-12-31T05:45:05.245Z,97670.00
2022-12-31T05:47:35.170Z,97667.25
2022-12-31T05:50:03.749Z,97664.50
2022-12-31T05:52:32.235Z,97668.06
2022-12-31T05:55:00.665Z,97672.75
2022-12-31T05:57:29.058Z,97673.56
2022-12-31T05:59:57.438Z,97672.75
2022-12-31T06:02:26.132Z,97674.69
2022-12-31T06:04:56.023Z,97670.00
2022-12-31T06:07:24.572Z,97667.25
2022-12-31T06:09:53.107Z,97672.97
2022-12-31T06:12:21.676Z,97679.47
2022-12-31T06:14:50.181Z,97690.06
2022-12-31T06:17:19.103Z,97687.19
2022-12-31T06:19:49.299Z,97692.59
2022-12-31T06:22:19.295Z,97691.97
2022-12-31T06:24:48.526Z,97681.94
2022-12-31T06:27:17.084Z,97693.16
2022-12-31T06:29:45.910Z,97700.28
2022-12-31T06:32:14.498Z,97696.91
2022-12-31T06:34:42.892Z,97711.50
2022-12-31T06:37:11.743Z,97713.13
2022-12-31T06:39:41.604Z,97712.00
2022-12-31T06:42:10.004Z,97713.13
2022-12-31T06:44:39.717Z,97715.88
2022-12-31T06:47:08.143Z,97714.25
2022-12-31T06:49:36.605Z,97709.88
2022-12-31T06:52:05.358Z,97707.13
2022-12-31T06:54:34.150Z,97707.13
2022-12-31T06:57:05.119Z,97714.88
2022-12-31T06:59:34.145Z,97710.00
2022-12-31T07:02:31.983Z,97704.28
2022-12-31T07:05:13.935Z,97712.88
2022-12-31T07:07:53.383Z,97717.88
2022-12-31T07:10:33.747Z,97722.88
2022-12-31T07:13:24.583Z,97706.16
2022-12-31T07:16:08.861Z,97715.22
2022-12-31T07:18:44.041Z,97713.09
2022-12-31T07:21:14.976Z,97703.22
2022-12-31T07:23:44.343Z,97698.31
2022-12-31T07:26:23.499Z,97695.56
2022-12-31T07:29:02.225Z,97710.47
2022-12-31T07:31:54.975Z,97715.16
2022-12-31T07:34:30.483Z,97711.06
2022-12-31T07:37:05.978Z,97716.88
2022-12-31T07:39:43.109Z,97724.84
2022-12-31T07:42:17.430Z,97734.72
2022-12-31T07:45:02.339Z,97721.28
2022-12-31T07:47:31.268Z,97732.28
2022-12-31T07:50:00.279Z,97731.47
2022-12-31T07:52:29.262Z,97736.16
2022-12-31T07:54:57.737Z,97740.84
2022-12-31T07:57:32.805Z,97744.41
2022-12-31T08:00:09.795Z,97740.84
2022-12-31T08:03:03.011Z,97750.22
2022-12-31T08:05:36.465Z,97748.59
2022-12-31T08:08:18.644Z,97756.34
2022-12-31T08:11:00.741Z,97753.91
2022-12-31T08:13:29.386Z,97760.53
2022-12-31T08:16:00.235Z,97759.72
2022-12-31T08:18:29.112Z,97766.34
2022-12-31T08:21:07.379Z,97760.84
2022-12-31T08:23:40.829Z,97771.84
2022-12-31T08:26:22.106Z,97779.31
2022-12-31T08:29:17.667Z,97778.19
2022-12-31T08:31:55.590Z,97787.56
2022-12-31T08:34:32.828Z,97788.38
2022-12-31T08:37:06.393Z,97786.75
2022-12-31T08:39:49.631Z,97781.25
2022-12-31T08:42:26.850Z,97778.47
2022-12-31T08:45:04.121Z,97776.84
2022-12-31T08:47:43.049Z,97774.91
2022-12-31T08:50:15.712Z,97769.41
2022-12-31T08:52:44.976Z,97782.34
2022-12-31T08:55:16.326Z,97785.13
2022-12-31T08:57:53.790Z,97784.28
2022-12-31T09:00:23.180Z,97793.38
2022-12-31T09:03:31.596Z,97790.63
2022-12-31T09:06:07.605Z,97785.41
2022-12-31T09:08:44.931Z,97794.50
2022-12-31T09:11:22.801Z,97797.25
2022-12-31T09:14:08.807Z,97798.38
2022-12-31T09:16:47.490Z,97803.88
2022-12-31T09:19:17.402Z,97820.38
2022-12-31T09:21:46.510Z,97820.38
2022-12-31T09:24:16.572Z,97819.56
2022-12-31T09:26:52.992Z,97814.88
2022-12-31T09:29:35.981Z,97825.88
2022-12-31T09:32:13.945Z,97816.81
2022-12-31T09:34:50.797Z,97809.38
2022-12-31T09:37:26.787Z,97814.06
2022-12-31T09:40:00.546Z,97813.25
2022-12-31T09:43:02.065Z,97820.38
2022-12-31T09:46:05.078Z,97806.63
2022-12-31T09:49:05.810Z,97828.94
2022-12-31T09:51:46.302Z,97820.38
2022-12-31T09:54:41.121Z,97817.63
2022-12-31T09:57:28.574Z,97813.25
2022-12-31T10:00:02.526Z,97807.75
2022-12-31T10:02:55.042Z,97817.94
2022-12-31T10:05:43.522Z,97819.88
2022-12-31T10:08:29.681Z,97819.88
2022-12-31T10:11:04.048Z,97813.25
2022-12-31T10:13:49.931Z,97805.28
2022-12-31T10:16:33.503Z,97805.28
2022-12-31T10:19:30.316Z,97804.47
2022-12-31T10:22:11.971Z,97821.00
2022-12-31T10:25:08.848Z,97813.84
2022-12-31T10:27:49.810Z,97803.66
2022-12-31T10:30:20.963Z,97815.50
2022-12-31T10:33:04.418Z,97814.69
2022-12-31T10:35:41.518Z,97809.47
2022-12-31T10:38:25.696Z,97814.69
2022-12-31T10:41:38.952Z,97815.78
2022-12-31T10:44:46.506Z,97813.84
2022-12-31T10:47:48.976Z,97802.84
2022-12-31T10:50:44.878Z,97798.47
2022-12-31T10:53:42.884Z,97796.53
2022-12-31T10:56:46.956Z,97790.22
2022-12-31T10:59:55.125Z,97780.84
2022-12-31T11:02:56.957Z,97791.84
2022-12-31T11:06:10.204Z,97793.78
2022-12-31T11:08:55.141Z,97787.47
2022-12-31T11:11:32.596Z,97792.97
2022-12-31T11:14:33.144Z,97791.03
2022-12-31T11:17:14.053Z,97794.59
2022-12-31T11:19:55.972Z,97790.22
2022-12-31T11:22:38.967Z,97790.22
2022-12-31T11:25:21.653Z,97779.19
2022-12-31T11:28:03.546Z,97783.06
2022-12-31T11:30:45.704Z,97775.63
2022-12-31T11:33:32.418Z,97764.94
2022-12-31T11:36:15.006Z,97763.31
2022-12-31T11:38:48.531Z,97755.03
2022-12-31T11:41:24.281Z,97760.84
2022-12-31T11:44:02.034Z,97750.66
2022-12-31T11:47:00.840Z,97750.66
2022-12-31T11:49:42.145Z,97744.66
2022-12-31T11:52:34.334Z,97751.28
2022-12-31T11:55:25.541Z,97746.91
2022-12-31T11:57:56.138Z,97753.50
2022-12-31T12:00:26.905Z,97749.44
2022-12-31T12:03:00.641Z,97747.00
2022-12-31T12:05:29.403Z,97739.88
2022-12-31T12:07:58.534Z,97733.53
2022-12-31T12:10:36.142Z,97738.22
2022-12-31T12:13:14.366Z,97740.97
2022-12-31T12:15:46.653Z,97738.22
2022-12-31T12:18:27.266Z,97738.22
2022-12-31T12:21:06.457Z,97725.59
2022-12-31T12:23:34.917Z,97729.47
2022-12-31T12:26:03.497Z,97736.59
2022-12-31T12:28:44.503Z,97728.34
2022-12-31T12:31:21.160Z,97731.09
2022-12-31T12:33:52.876Z,97722.84
2022-12-31T12:36:22.943Z,97720.09
2022-12-31T12:39:02.423Z,97714.91
2022-12-31T12:41:30.984Z,97714.59
2022-12-31T12:44:07.920Z,97708.59
2022-12-31T12:46:47.980Z,97711.34
2022-12-31T12:49:24.662Z,97722.34
2022-12-31T12:52:24.703Z,97715.72
2022-12-31T12:55:07.406Z,97730.47
2022-12-31T12:57:45.260Z,97729.88
2022-12-31T13:00:20.067Z,97721.00
2022-12-31T13:03:08.668Z,97725.91
2022-12-31T13:05:52.954Z,97720.91
2022-12-31T13:08:34.537Z,97712.34
2022-12-31T13:11:15.816Z,97706.00
2022-12-31T13:13:53.337Z,97708.47
2022-12-31T13:16:29.076Z,97714.78
2022-12-31T13:19:05.616Z,97714.78
2022-12-31T13:21:46.577Z,97701.53
2022-12-31T13:24:26.452Z,97700.41
2022-12-31T13:27:01.818Z,97710.28
2022-12-31T13:29:33.666Z,97706.41
2022-12-31T13:32:05.041Z,97708.03
2022-12-31T13:34:37.531Z,97704.16
2022-12-31T13:37:19.418Z,97693.16
2022-12-31T13:39:50.971Z,97689.28
2022-12-31T13:42:24.772Z,97685.41
2022-12-31T13:44:59.330Z,97681.53
2022-12-31T13:47:33.654Z,97680.41
2022-12-31T13:50:09.571Z,97687.03
2022-12-31T13:52:49.821Z,97690.28
2022-12-31T13:55:22.491Z,97692.72
2022-12-31T13:57:54.502Z,97687.22
2022-12-31T14:00:25.317Z,97686.41
2022-12-31T14:03:03.245Z,97692.72
2022-12-31T14:05:36.229Z,97688.03
2022-12-31T14:08:07.311Z,97700.69
2022-12-31T14:10:47.118Z,97694.38
2022-12-31T14:13:35.166Z,97693.53
2022-12-31T14:16:12.746Z,97691.91
2022-12-31T14:18:46.881Z,97696.59
2022-12-31T14:21:22.797Z,97692.22
2022-12-31T14:24:00.308Z,97694.97
2022-12-31T14:26:32.196Z,97694.16
2022-12-31T14:29:15.443Z,97692.53
2022-12-31T14:32:13.636Z,97698.03
2022-12-31T14:34:51.774Z,97701.91
2022-12-31T14:37:33.914Z,97698.66
2022-12-31T14:40:17.709Z,97705.78
2022-12-31T14:42:57.694Z,97699.47
2022-12-31T14:45:36.431Z,97704.16
2022-12-31T14:48:21.885Z,97697.84
2022-12-31T14:50:51.257Z,97703.66
2022-12-31T14:53:24.049Z,97707.22
2022-12-31T14:56:01.818Z,97706.41
2022-12-31T14:58:36.486Z,97709.16
2022-12-31T15:01:09.000Z,97710.28
2022-12-31T15:03:45.430Z,97715.47
2022-12-31T15:06:36.762Z,97713.84
2022-12-31T15:09:15.357Z,97716.59
2022-12-31T15:12:05.085Z,97709.16
2022-12-31T15:14:51.851Z,97720.16
2022-12-31T15:17:33.197Z,97710.28
2022-12-31T15:20:42.378Z,97722.94
2022-12-31T15:23:20.880Z,97713.03
2022-12-31T15:25:52.448Z,97723.53
2022-12-31T15:28:37.426Z,97714.16
2022-12-31T15:31:19.114Z,97720.47
2022-12-31T15:33:58.262Z,97724.03
2022-12-31T15:36:28.916Z,97725.16
2022-12-31T15:39:26.650Z,97726.28
2022-12-31T15:42:36.105Z,97724.34
2022-12-31T15:44:50.711Z,97723.53
2022-12-31T15:47:32.437Z,97720.78
2022-12-31T15:50:04.523Z,97727.41
2022-12-31T15:52:40.234Z,97734.56
2022-12-31T15:55:16.629Z,97722.72
2022-12-31T15:57:45.270Z,97721.09
2022-12-31T16:00:20.054Z,97729.84
2022-12-31T16:02:49.353Z,97735.88
2022-12-31T16:05:20.774Z,97734.75
2022-12-31T16:07:49.600Z,97735.56
2022-12-31T16:10:24.726Z,97739.63
2022-12-31T16:12:54.662Z,97743.22
2022-12-31T16:15:28.110Z,97745.97
2022-12-31T16:18:02.808Z,97736.59
2022-12-31T16:20:33.787Z,97746.97
2022-12-31T16:23:04.379Z,97745.53
2022-12-31T16:25:34.135Z,97752.88
2022-12-31T16:28:04.682Z,97750.63
2022-12-31T16:30:36.841Z,97751.66
2022-12-31T16:33:07.948Z,97757.66
2022-12-31T16:35:38.018Z,97754.28
2022-12-31T16:38:15.789Z,97752.34
2022-12-31T16:41:04.544Z,97755.91
2022-12-31T16:43:39.418Z,97756.41
2022-12-31T16:46:13.561Z,97755.31
2022-12-31T16:48:47.432Z,97748.16
2022-12-31T16:51:20.779Z,97755.59
2022-12-31T16:53:50.427Z,97753.66
2022-12-31T16:56:26.007Z,97757.53
2022-12-31T16:59:00.767Z,97752.84
2022-12-31T17:01:33.999Z,97755.31
2022-12-31T17:04:07.295Z,97750.59
2022-12-31T17:06:35.762Z,97749.16
2022-12-31T17:09:15.320Z,97750.81
2022-12-31T17:11:45.444Z,97744.47
2022-12-31T17:14:16.366Z,97757.94
2022-12-31T17:17:03.678Z,97759.56
2022-12-31T17:19:41.315Z,97761.19
2022-12-31T17:22:14.319Z,97766.72
2022-12-31T17:24:43.236Z,97772.22
2022-12-31T17:27:11.827Z,97763.66
2022-12-31T17:29:40.299Z,97769.47
2022-12-31T17:32:29.472Z,97779.34
2022-12-31T17:34:57.995Z,97777.72
2022-12-31T17:37:28.256Z,97765.06
2022-12-31T17:40:24.665Z,97778.34
2022-12-31T17:42:49.885Z,97776.72
2022-12-31T17:45:22.485Z,97771.81
2022-12-31T17:47:55.540Z,97772.63
2022-12-31T17:50:26.453Z,97763.56
2022-12-31T17:52:57.290Z,97764.19
2022-12-31T17:55:25.948Z,97766.94
2022-12-31T17:57:57.280Z,97766.13
2022-12-31T18:00:27.391Z,97781.00
2022-12-31T18:02:57.239Z,97774.69
2022-12-31T18:05:26.105Z,97786.81
2022-12-31T18:07:54.936Z,97780.31
2022-12-31T18:10:25.239Z,97781.22
2022-12-31T18:12:54.204Z,97788.16
2022-12-31T18:15:24.529Z,97793.66
2022-12-31T18:17:52.965Z,97803.06
2022-12-31T18:20:22.910Z,97793.66
2022-12-31T18:22:51.871Z,97804.69
2022-12-31T18:25:22.310Z,97802.44
2022-12-31T18:27:52.069Z,97800.81
2022-12-31T18:30:20.610Z,97804.06
2022-12-31T18:32:49.541Z,97797.75
2022-12-31T18:35:57.768Z,97800.81
2022-12-31T18:38:13.966Z,97809.56
2022-12-31T18:40:46.590Z,97808.75
2022-12-31T18:43:19.527Z,97815.09
2022-12-31T18:45:49.046Z,97811.81
2022-12-31T18:48:18.106Z,97813.75
2022-12-31T18:50:47.800Z,97815.69
2022-12-31T18:53:20.468Z,97819.56
2022-12-31T18:55:52.527Z,97816.31
2022-12-31T18:58:21.116Z,97807.53
2022-12-31T19:00:51.113Z,97813.03
2022-12-31T19:03:22.708Z,97814.16
2022-12-31T19:05:52.538Z,97812.84
2022-12-31T19:08:24.175Z,97812.03
2022-12-31T19:10:53.702Z,97826.91
2022-12-31T19:13:23.198Z,97830.78
2022-12-31T19:15:53.800Z,97832.72
2022-12-31T19:18:22.587Z,97824.78
2022-12-31T19:20:52.489Z,97833.03
2022-12-31T19:23:22.666Z,97830.28
2022-12-31T19:25:51.503Z,97836.91
2022-12-31T19:28:22.404Z,97830.56
2022-12-31T19:30:50.864Z,97829.75
2022-12-31T19:33:20.177Z,97828.13
2022-12-31T19:35:48.709Z,97833.63
2022-12-31T19:38:19.684Z,97838.03
2022-12-31T19:40:50.546Z,97828.13
2022-12-31T19:43:21.593Z,97830.06
2022-12-31T19:45:51.231Z,97830.88
2022-12-31T19:48:22.877Z,97831.19
2022-12-31T19:50:55.081Z,97832.00
2022-12-31T19:53:26.644Z,97842.19
2022-12-31T19:55:56.631Z,97843.81
2022-12-31T19:58:26.604Z,97839.75
2022-12-31T20:01:01.918Z,97846.88
2022-12-31T20:03:32.459Z,97841.38
2022-12-31T20:06:07.452Z,97839.75
2022-12-31T20:08:36.383Z,97846.06
2022-12-31T20:11:14.087Z,97851.56
2022-12-31T20:13:43.421Z,97848.00
2022-12-31T20:16:15.539Z,97845.25
2022-12-31T20:18:45.525Z,97840.88
2022-12-31T20:21:17.607Z,97842.81
2022-12-31T20:23:46.757Z,97855.44
2022-12-31T20:26:16.706Z,97854.63
2022-12-31T20:28:45.357Z,97846.69
2022-12-31T20:31:15.655Z,97849.13
2022-12-31T20:33:44.727Z,97847.50
2022-12-31T20:36:15.800Z,97842.00
2022-12-31T20:38:44.744Z,97832.41
2022-12-31T20:41:14.714Z,97837.59
2022-12-31T20:43:45.448Z,97833.22
2022-12-31T20:46:17.972Z,97847.00
2022-12-31T20:48:47.803Z,97850.56
2022-12-31T20:51:17.815Z,97845.34
2022-12-31T20:53:48.312Z,97849.72
2022-12-31T20:56:17.786Z,97854.44
2022-12-31T20:58:47.621Z,97849.72
2022-12-31T21:01:17.608Z,97844.22
2022-12-31T21:04:05.351Z,97841.47
2022-12-31T21:06:35.787Z,97835.97
2022-12-31T21:09:06.528Z,97844.22
2022-12-31T21:11:52.871Z,97837.09
2022-12-31T21:14:22.714Z,97842.59
2022-12-31T21:16:51.508Z,97848.09
2022-12-31T21:19:20.034Z,97845.34
2022-12-31T21:21:49.757Z,97846.47
2022-12-31T21:24:23.613Z,97855.84
2022-12-31T21:26:55.404Z,97861.34
2022-12-31T21:29:26.905Z,97855.03
2022-12-31T21:31:57.361Z,97862.16
2022-12-31T21:34:25.838Z,97861.34
2022-12-31T21:36:54.347Z,97865.22
2022-12-31T21:39:22.856Z,97866.34
2022-12-31T21:41:53.969Z,97879.81
2022-12-31T21:44:25.418Z,97882.84
2022-12-31T21:47:39.738Z,97875.41
2022-12-31T21:50:09.760Z,97880.09
2022-12-31T21:52:38.243Z,97887.25
2022-12-31T21:55:25.190Z,97874.59
2022-12-31T22:01:01.592Z,97882.84
2022-12-31T22:03:31.691Z,97884.78
2022-12-31T22:06:02.824Z,97890.28
2022-12-31T22:08:32.886Z,97885.59
2022-12-31T22:11:01.313Z,97896.91
2022-12-31T22:13:29.797Z,97900.50
2022-12-31T22:16:05.161Z,97904.34
2022-12-31T22:18:38.508Z,97906.00
2022-12-31T22:21:15.563Z,97907.63
2022-12-31T22:23:47.347Z,97920.88
2022-12-31T22:26:17.928Z,97915.06
2022-12-31T22:28:47.147Z,97915.38
2022-12-31T22:31:18.932Z,97916.19
2022-12-31T22:33:48.165Z,97922.50
2022-12-31T22:36:18.875Z,97926.38
2022-12-31T22:38:48.245Z,97931.06
2022-12-31T22:41:18.733Z,97925.56
2022-12-31T22:43:48.674Z,97931.06
2022-12-31T22:46:20.166Z,97934.13
2022-12-31T22:48:48.803Z,97936.88
2022-12-31T22:51:17.701Z,97942.06
2022-12-31T22:53:46.862Z,97950.63
2022-12-31T22:56:17.811Z,97950.63
2022-12-31T22:58:47.216Z,97950.63
2022-12-31T23:01:20.316Z,97956.13
2022-12-31T23:03:50.286Z,97957.25
2022-12-31T23:06:19.477Z,97953.69
2022-12-31T23:09:12.516Z,97960.00
2022-12-31T23:11:40.682Z,97953.69
2022-12-31T23:14:26.683Z,97962.44
2022-12-31T23:17:31.390Z,97960.00
2022-12-31T23:20:18.225Z,97961.63
2022-12-31T23:23:04.267Z,97956.13
2022-12-31T23:25:33.936Z,97945.13
2022-12-31T23:28:02.808Z,97957.75
2022-12-31T23:30:31.334Z,97952.84
2022-12-31T23:33:01.163Z,97950.63
2022-12-31T23:35:29.632Z,97961.63
2022-12-31T23:37:58.093Z,97961.63
2022-12-31T23:40:34.200Z,97968.78
2022-12-31T23:43:04.046Z,97963.25
2022-12-31T23:45:34.006Z,97961.63
2022-12-31T23:48:04.520Z,97969.88
2022-12-31T23:50:32.952Z,97965.19
2022-12-31T23:53:01.453Z,97965.19
2022-12-31T23:55:29.962Z,97961.34
2022-12-31T23:57:58.393Z,97957.75
